Time;durP1;ratioP1;P1;durP2;ratioP2;P2;SDS_P1;SDS_P2;PMS_P1;PMS_P2;Temp;Humidity;BMP_temperature;BMP_pressure;BME280_temperature;BME280_humidity;BME280_pressure;Samples;Min_cycle;Max_cycle;Signal;HPM_P1;HPM_P2
2023/01/08 00:01:42;;;;;;;43.27;19.63;;;7.00;99.90;;;;;;5014741;28;20293;-71
2023/01/08 00:04:11;;;;;;;45.60;21.17;;;7.00;99.90;;;;;;5014762;28;20199;-72
2023/01/08 00:06:40;;;;;;;43.37;20.73;;;7.00;99.90;;;;;;5012605;28;20199;-71
2023/01/08 00:09:10;;;;;;;42.90;21.40;;;7.10;99.90;;;;;;5014673;28;20229;-71
2023/01/08 00:11:39;;;;;;;55.60;23.40;;;7.10;99.90;;;;;;5013267;28;20234;-72
2023/01/08 00:14:08;;;;;;;46.30;20.93;;;7.10;99.90;;;;;;5015287;28;20666;-72
2023/01/08 00:16:39;;;;;;;47.10;22.03;;;7.20;99.90;;;;;;5015320;28;20267;-71
2023/01/08 00:19:09;;;;;;;47.23;22.13;;;7.20;99.90;;;;;;5015278;28;20196;-71
2023/01/08 00:21:37;;;;;;;48.33;22.37;;;7.20;99.90;;;;;;5015185;28;20360;-71
2023/01/08 00:24:07;;;;;;;52.60;22.53;;;7.20;99.90;;;;;;5015165;28;20207;-71
2023/01/08 00:26:36;;;;;;;50.10;22.17;;;7.20;99.90;;;;;;5015038;28;20739;-71
2023/01/08 00:29:05;;;;;;;47.37;22.43;;;7.20;99.90;;;;;;5014714;28;20226;-72
2023/01/08 00:31:34;;;;;;;42.23;22.57;;;7.20;99.90;;;;;;5014945;28;20249;-72
2023/01/08 00:34:04;;;;;;;44.20;21.87;;;7.20;99.90;;;;;;5014843;28;20200;-71
2023/01/08 00:36:33;;;;;;;46.13;21.10;;;7.30;99.90;;;;;;5014910;28;20202;-72
2023/01/08 00:39:02;;;;;;;44.93;21.77;;;7.20;99.90;;;;;;5014900;28;20203;-72
2023/01/08 00:41:30;;;;;;;44.73;21.33;;;7.20;99.90;;;;;;5005753;28;20219;-71
2023/01/08 00:43:59;;;;;;;46.13;21.77;;;7.20;99.90;;;;;;4999260;28;20207;-71
2023/01/08 00:46:28;;;;;;;42.90;20.53;;;7.30;99.90;;;;;;5014695;28;20672;-71
2023/01/08 00:48:57;;;;;;;47.27;23.63;;;7.30;99.90;;;;;;5005147;28;20735;-71
2023/01/08 00:51:27;;;;;;;42.57;21.30;;;7.30;99.90;;;;;;4994876;28;20196;-71
2023/01/08 00:53:56;;;;;;;40.10;20.77;;;7.30;99.90;;;;;;4995179;28;20203;-71
2023/01/08 00:56:25;;;;;;;47.00;21.87;;;7.20;99.90;;;;;;4994890;28;20227;-71
2023/01/08 00:58:54;;;;;;;44.23;22.13;;;7.30;99.90;;;;;;4994990;28;20231;-71
2023/01/08 01:01:23;;;;;;;47.23;22.50;;;7.40;99.90;;;;;;4994670;28;20266;-70
2023/01/08 01:03:52;;;;;;;50.13;23.17;;;7.40;99.90;;;;;;4994882;28;20918;-71
2023/01/08 01:06:21;;;;;;;45.40;22.57;;;7.40;99.90;;;;;;4994759;28;20199;-71
2023/01/08 01:08:51;;;;;;;53.40;22.90;;;7.30;99.90;;;;;;4994718;28;20291;-70
2023/01/08 01:11:22;;;;;;;48.23;21.73;;;7.30;99.90;;;;;;4994406;28;20674;-70
2023/01/08 01:13:51;;;;;;;52.00;23.73;;;7.40;99.90;;;;;;4994583;28;20199;-71
2023/01/08 01:16:19;;;;;;;47.30;22.30;;;7.40;99.90;;;;;;4994469;28;20199;-71
2023/01/08 01:18:51;;;;;;;51.77;24.57;;;7.30;99.90;;;;;;4994874;28;20218;-71
2023/01/08 01:21:24;;;;;;;50.73;24.17;;;7.30;99.90;;;;;;4994259;28;20659;-71
2023/01/08 01:23:56;;;;;;;47.97;22.83;;;7.30;99.90;;;;;;4994502;28;20211;-71
2023/01/08 01:26:26;;;;;;;43.60;21.80;;;7.30;99.90;;;;;;4994272;28;20192;-71
2023/01/08 01:28:57;;;;;;;45.20;22.73;;;7.20;99.90;;;;;;4994393;28;20211;-72
2023/01/08 01:31:29;;;;;;;50.20;24.73;;;7.30;99.90;;;;;;4994177;28;20287;-71
2023/01/08 01:33:58;;;;;;;52.47;24.40;;;7.20;99.90;;;;;;4994406;28;20200;-71
2023/01/08 01:36:27;;;;;;;50.37;24.50;;;7.10;99.90;;;;;;4994101;28;20196;-71
2023/01/08 01:38:58;;;;;;;52.03;23.87;;;7.10;99.90;;;;;;4994275;28;20235;-71
2023/01/08 01:41:29;;;;;;;51.77;23.93;;;7.00;99.90;;;;;;4993076;28;20211;-71
2023/01/08 01:44:00;;;;;;;48.33;23.03;;;7.10;99.90;;;;;;4994172;28;20202;-71
2023/01/08 01:46:36;;;;;;;49.63;22.17;;;7.10;99.90;;;;;;4994016;28;20729;-71
2023/01/08 01:49:10;;;;;;;44.53;21.23;;;7.10;99.90;;;;;;4994100;28;20662;-71
2023/01/08 01:51:43;;;;;;;40.07;21.97;;;7.00;99.90;;;;;;4993851;28;20242;-71
2023/01/08 01:54:13;;;;;;;48.23;22.23;;;7.00;99.90;;;;;;4994236;28;20208;-71
2023/01/08 01:56:44;;;;;;;39.97;22.97;;;7.00;99.90;;;;;;4993642;28;20228;-71
2023/01/08 01:59:13;;;;;;;44.43;23.57;;;7.10;99.90;;;;;;4994147;28;20663;-71
2023/01/08 02:01:43;;;;;;;42.83;22.43;;;7.10;99.90;;;;;;4993853;28;20223;-72
2023/01/08 02:04:13;;;;;;;41.40;22.57;;;7.20;99.90;;;;;;4993966;28;20199;-72
2023/01/08 02:06:46;;;;;;;42.33;22.63;;;7.20;99.90;;;;;;4993674;28;20211;-71
2023/01/08 02:09:27;;;;;;;42.20;23.33;;;7.20;99.90;;;;;;4993814;28;20246;-72
2023/01/08 02:12:19;;;;;;;43.83;22.83;;;7.10;99.90;;;;;;4993517;28;20210;-72
2023/01/08 02:15:05;;;;;;;37.43;21.77;;;7.10;99.90;;;;;;4993721;28;20200;-71
2023/01/08 02:17:44;;;;;;;40.40;22.40;;;7.10;99.90;;;;;;4993718;28;20736;-71
2023/01/08 02:20:18;;;;;;;42.63;21.97;;;7.10;99.90;;;;;;4993453;28;20202;-71
2023/01/08 02:23:01;;;;;;;40.40;21.53;;;7.20;99.90;;;;;;4997619;28;20238;-72
2023/01/08 02:25:45;;;;;;;37.73;21.70;;;7.20;99.90;;;;;;5007136;28;20538;-72
2023/01/08 02:28:16;;;;;;;41.60;23.53;;;7.10;99.90;;;;;;5025292;28;20561;-71
2023/01/08 02:30:47;;;;;;;41.73;22.37;;;7.10;99.90;;;;;;4993489;28;20188;-71
2023/01/08 02:33:16;;;;;;;38.63;23.23;;;7.10;99.90;;;;;;4993386;28;20691;-71
2023/01/08 02:35:51;;;;;;;42.03;24.63;;;7.10;99.90;;;;;;5007225;28;20306;-72
2023/01/08 02:38:22;;;;;;;43.67;24.30;;;7.20;99.90;;;;;;5012952;28;20202;-70
2023/01/08 02:40:57;;;;;;;42.07;21.97;;;7.20;99.90;;;;;;5012694;28;20600;-71
2023/01/08 02:43:32;;;;;;;44.33;22.87;;;7.20;99.90;;;;;;5012818;28;20309;-71
2023/01/08 02:46:02;;;;;;;39.30;22.77;;;7.20;99.90;;;;;;5012927;28;20614;-71
2023/01/08 02:48:38;;;;;;;47.43;23.43;;;7.20;99.90;;;;;;5012356;28;20553;-71
2023/01/08 02:51:12;;;;;;;42.20;23.00;;;7.10;99.90;;;;;;4993194;28;20201;-71
2023/01/08 02:53:44;;;;;;;43.97;22.97;;;7.10;99.90;;;;;;4993183;28;20204;-71
2023/01/08 02:56:18;;;;;;;44.07;22.77;;;7.10;99.90;;;;;;4992901;28;20256;-71
2023/01/08 02:58:51;;;;;;;46.87;23.10;;;7.00;99.90;;;;;;4991082;28;20259;-71
2023/01/08 03:01:22;;;;;;;48.90;24.60;;;7.00;99.90;;;;;;4992944;28;20200;-71
2023/01/08 03:03:55;;;;;;;44.00;23.20;;;7.00;99.90;;;;;;4992948;28;20227;-72
2023/01/08 03:06:24;;;;;;;43.17;23.07;;;7.00;99.90;;;;;;4992925;28;20217;-70
2023/01/08 03:08:54;;;;;;;54.83;24.57;;;6.90;99.90;;;;;;4993099;28;20199;-72
2023/01/08 03:11:28;;;;;;;53.07;25.27;;;6.90;99.90;;;;;;4992976;28;20669;-71
2023/01/08 03:14:04;;;;;;;51.20;24.43;;;6.90;99.90;;;;;;4992991;28;20184;-71
2023/01/08 03:16:36;;;;;;;53.07;25.10;;;6.90;99.90;;;;;;4992776;28;20207;-71
2023/01/08 03:19:11;;;;;;;52.33;25.17;;;6.90;99.90;;;;;;4992831;28;20204;-72
2023/01/08 03:21:42;;;;;;;45.83;23.20;;;6.90;99.90;;;;;;4992849;28;20199;-71
2023/01/08 03:24:14;;;;;;;48.70;24.40;;;7.00;99.90;;;;;;4992706;28;20214;-71
2023/01/08 03:26:46;;;;;;;48.70;25.53;;;7.10;99.90;;;;;;4992958;28;20204;-72
2023/01/08 03:29:20;;;;;;;47.60;24.67;;;7.10;99.90;;;;;;4992605;28;20202;-71
2023/01/08 03:31:50;;;;;;;48.53;25.87;;;7.10;99.90;;;;;;4992796;28;20204;-70
2023/01/08 03:34:21;;;;;;;48.27;25.70;;;7.20;99.90;;;;;;4992725;28;20207;-70
2023/01/08 03:36:54;;;;;;;48.97;24.63;;;7.20;99.90;;;;;;4992619;28;20211;-70
2023/01/08 03:39:28;;;;;;;54.50;25.20;;;7.10;99.90;;;;;;4992709;28;20274;-70
2023/01/08 03:42:00;;;;;;;52.43;26.73;;;7.10;99.90;;;;;;4992692;28;20192;-71
2023/01/08 03:44:31;;;;;;;55.67;25.43;;;7.20;99.90;;;;;;4992534;28;20235;-70
2023/01/08 03:47:00;;;;;;;52.37;26.43;;;7.20;99.90;;;;;;4992789;28;20200;-71
2023/01/08 03:49:30;;;;;;;55.73;26.83;;;7.20;99.90;;;;;;4992555;28;20199;-70
2023/01/08 03:51:59;;;;;;;49.27;25.17;;;7.20;99.90;;;;;;4992491;28;20207;-71
2023/01/08 03:54:32;;;;;;;53.03;25.97;;;7.30;99.90;;;;;;4992621;28;20258;-70
2023/01/08 03:57:01;;;;;;;51.63;26.17;;;7.20;99.90;;;;;;4992379;28;20230;-70
2023/01/08 03:59:31;;;;;;;56.80;27.40;;;7.20;99.90;;;;;;4992495;28;20223;-71
2023/01/08 04:02:00;;;;;;;55.77;26.43;;;7.20;99.90;;;;;;4992516;28;20222;-70
2023/01/08 04:04:29;;;;;;;55.90;27.40;;;7.20;99.90;;;;;;5004340;28;20256;-70
2023/01/08 04:06:58;;;;;;;63.47;28.57;;;7.20;99.90;;;;;;5015763;28;20688;-71
2023/01/08 04:09:26;;;;;;;63.17;28.30;;;7.20;99.90;;;;;;5015680;28;20210;-70
2023/01/08 04:11:55;;;;;;;54.30;26.10;;;7.10;99.90;;;;;;5015596;28;20198;-70
2023/01/08 04:14:24;;;;;;;56.20;27.33;;;7.10;99.90;;;;;;5015556;28;20206;-71
2023/01/08 04:16:55;;;;;;;54.87;27.77;;;7.10;99.90;;;;;;5015466;28;20570;-71
2023/01/08 04:19:24;;;;;;;57.60;26.87;;;7.10;99.90;;;;;;5015488;28;20678;-70
2023/01/08 04:21:53;;;;;;;49.87;25.73;;;7.20;99.90;;;;;;5015264;28;20287;-70
2023/01/08 04:24:22;;;;;;;50.17;26.93;;;7.10;99.90;;;;;;5015142;28;20211;-71
2023/01/08 04:26:51;;;;;;;54.07;27.33;;;7.00;99.90;;;;;;5015063;28;20692;-71
2023/01/08 04:29:20;;;;;;;51.87;26.43;;;7.00;99.90;;;;;;5014760;28;20202;-71
2023/01/08 04:31:48;;;;;;;51.03;25.80;;;7.00;99.90;;;;;;5015153;28;20230;-71
2023/01/08 04:34:19;;;;;;;51.53;27.13;;;7.00;99.90;;;;;;5015025;28;20201;-71
2023/01/08 04:36:48;;;;;;;53.33;27.00;;;7.00;99.90;;;;;;5014961;28;20203;-71
2023/01/08 04:39:17;;;;;;;56.33;27.50;;;7.00;99.90;;;;;;5015000;28;20198;-71
2023/01/08 04:41:46;;;;;;;52.57;26.73;;;7.00;99.90;;;;;;5014880;28;20237;-71
2023/01/08 04:44:15;;;;;;;49.27;25.97;;;7.00;99.90;;;;;;5014772;28;20779;-71
2023/01/08 04:46:43;;;;;;;45.93;25.03;;;7.00;99.90;;;;;;5014865;28;20201;-70
2023/01/08 04:49:12;;;;;;;51.43;27.10;;;7.00;99.90;;;;;;5014776;28;20201;-71
2023/01/08 04:51:43;;;;;;;51.10;26.77;;;7.00;99.90;;;;;;5014734;28;20226;-71
2023/01/08 04:54:12;;;;;;;53.63;28.77;;;7.00;99.90;;;;;;5014622;28;20257;-71
2023/01/08 04:56:40;;;;;;;58.97;28.87;;;7.00;99.90;;;;;;5012918;28;20577;-71
2023/01/08 04:59:09;;;;;;;53.10;28.80;;;7.00;99.90;;;;;;5014600;28;20257;-72
2023/01/08 05:01:38;;;;;;;52.37;27.13;;;7.00;99.90;;;;;;5014712;28;20563;-72
2023/01/08 05:04:07;;;;;;;54.30;28.43;;;7.00;99.90;;;;;;5014395;28;20219;-72
2023/01/08 05:06:36;;;;;;;54.90;29.07;;;7.00;99.90;;;;;;5014395;28;20203;-72
2023/01/08 05:09:06;;;;;;;54.57;27.97;;;7.00;99.90;;;;;;5014397;28;20202;-72
2023/01/08 05:11:36;;;;;;;48.50;28.13;;;7.00;99.90;;;;;;5014303;28;20213;-71
2023/01/08 05:14:05;;;;;;;55.77;26.93;;;7.00;99.90;;;;;;5014471;28;20207;-71
2023/01/08 05:16:34;;;;;;;50.13;27.90;;;6.90;99.90;;;;;;5014332;28;20201;-71
2023/01/08 05:19:03;;;;;;;51.13;26.87;;;6.90;99.90;;;;;;5014110;28;20206;-71
2023/01/08 05:21:32;;;;;;;52.23;27.77;;;6.90;99.90;;;;;;5014082;28;20204;-71
2023/01/08 05:24:00;;;;;;;48.33;26.57;;;6.90;99.90;;;;;;5013955;28;20587;-72
2023/01/08 05:26:31;;;;;;;54.50;27.10;;;6.90;99.90;;;;;;5011447;28;20668;-71
2023/01/08 05:29:00;;;;;;;52.90;27.67;;;6.90;99.90;;;;;;5008711;28;20234;-71
2023/01/08 05:31:29;;;;;;;50.27;25.30;;;6.90;99.90;;;;;;4994583;28;20279;-71
2023/01/08 05:33:58;;;;;;;47.17;26.10;;;6.80;99.90;;;;;;5001124;28;20778;-71
2023/01/08 05:36:29;;;;;;;50.03;25.53;;;6.70;99.90;;;;;;4994160;28;20694;-71
2023/01/08 05:38:58;;;;;;;46.40;24.97;;;6.70;99.90;;;;;;4994288;28;20204;-71
2023/01/08 05:41:27;;;;;;;46.53;24.70;;;6.70;99.90;;;;;;5013336;28;20211;-72
2023/01/08 05:43:57;;;;;;;51.13;25.80;;;6.60;99.90;;;;;;5013716;28;20191;-71
2023/01/08 05:46:26;;;;;;;44.53;24.03;;;6.60;99.90;;;;;;5012506;28;20612;-71
2023/01/08 05:48:55;;;;;;;45.63;25.43;;;6.60;99.90;;;;;;5013677;28;20208;-70
2023/01/08 05:51:24;;;;;;;50.30;25.17;;;6.50;99.90;;;;;;5012963;28;20242;-71
2023/01/08 05:53:53;;;;;;;49.07;25.97;;;6.60;99.90;;;;;;5012667;28;20585;-70
2023/01/08 05:56:22;;;;;;;49.13;25.77;;;6.60;99.90;;;;;;5012434;28;20241;-71
2023/01/08 05:58:54;;;;;;;42.63;23.93;;;6.60;99.90;;;;;;5012296;28;20233;-71
2023/01/08 06:01:24;;;;;;;47.70;24.53;;;6.60;99.90;;;;;;5012670;28;20256;-70
2023/01/08 06:03:56;;;;;;;45.30;24.13;;;6.50;99.90;;;;;;5012422;28;20195;-71
2023/01/08 06:06:25;;;;;;;48.17;24.67;;;6.50;99.90;;;;;;5012551;28;20214;-70
2023/01/08 06:08:54;;;;;;;43.23;23.80;;;6.60;99.90;;;;;;5012765;28;20203;-71
2023/01/08 06:11:23;;;;;;;52.03;25.30;;;6.60;99.90;;;;;;5012545;28;20632;-71
2023/01/08 06:13:51;;;;;;;46.77;25.67;;;6.70;99.90;;;;;;5012421;28;20535;-72
2023/01/08 06:16:20;;;;;;;47.30;22.63;;;6.80;99.90;;;;;;5004577;28;20210;-71
2023/01/08 06:18:51;;;;;;;48.17;24.13;;;6.80;99.90;;;;;;4997070;28;20220;-71
2023/01/08 06:21:20;;;;;;;48.97;24.20;;;6.80;99.90;;;;;;5000377;28;20271;-71
2023/01/08 06:23:49;;;;;;;42.17;24.63;;;6.70;99.90;;;;;;4998715;28;20747;-70
2023/01/08 06:26:17;;;;;;;48.47;25.00;;;6.70;99.90;;;;;;4992052;28;20245;-71
2023/01/08 06:28:46;;;;;;;48.90;23.60;;;6.70;99.90;;;;;;4999702;28;20203;-70
2023/01/08 06:31:15;;;;;;;43.03;23.63;;;6.70;99.90;;;;;;5011140;28;20673;-70
2023/01/08 06:33:44;;;;;;;48.53;24.43;;;6.70;99.90;;;;;;5009380;28;20713;-71
2023/01/08 06:36:14;;;;;;;46.57;24.23;;;6.80;99.90;;;;;;5006878;28;20257;-70
2023/01/08 06:38:43;;;;;;;45.60;23.70;;;6.80;99.90;;;;;;5002876;28;20214;-71
2023/01/08 06:41:12;;;;;;;47.40;24.70;;;6.80;99.90;;;;;;5011596;28;20218;-71
2023/01/08 06:43:41;;;;;;;45.63;24.53;;;6.90;99.90;;;;;;5010380;28;20260;-70
2023/01/08 06:46:10;;;;;;;49.37;24.87;;;7.00;99.90;;;;;;5010649;28;20227;-70
2023/01/08 06:48:39;;;;;;;49.77;26.57;;;7.00;99.90;;;;;;5011316;28;20211;-71
2023/01/08 06:51:08;;;;;;;45.20;24.50;;;7.00;99.90;;;;;;5011567;28;20746;-71
2023/01/08 06:53:38;;;;;;;47.07;25.50;;;7.10;99.90;;;;;;5011331;28;20199;-72
2023/01/08 06:56:09;;;;;;;49.87;26.97;;;7.00;99.90;;;;;;5011160;28;20881;-70
2023/01/08 06:58:39;;;;;;;48.37;25.50;;;7.00;99.90;;;;;;5002994;28;20748;-70
2023/01/08 07:01:12;;;;;;;44.20;25.03;;;7.10;99.90;;;;;;4991878;28;20199;-70
2023/01/08 07:03:41;;;;;;;51.50;26.20;;;7.20;99.90;;;;;;4991841;28;20212;-71
2023/01/08 07:06:15;;;;;;;52.30;27.70;;;7.20;99.90;;;;;;4994504;28;20251;-71
2023/01/08 07:08:46;;;;;;;54.83;29.10;;;7.20;99.90;;;;;;5005822;28;20549;-71
2023/01/08 07:11:15;;;;;;;49.37;27.03;;;7.20;99.90;;;;;;5011162;28;20207;-72
2023/01/08 07:13:44;;;;;;;46.50;25.93;;;7.20;99.90;;;;;;5010823;28;20213;-72
2023/01/08 07:16:14;;;;;;;51.70;29.20;;;7.10;99.90;;;;;;5011494;28;20197;-70
2023/01/08 07:18:43;;;;;;;42.73;25.73;;;7.20;99.90;;;;;;5008884;28;20202;-70
2023/01/08 07:21:12;;;;;;;45.00;25.77;;;7.20;99.90;;;;;;5010673;28;20741;-70
2023/01/08 07:23:41;;;;;;;47.00;26.50;;;7.20;99.90;;;;;;5011102;28;20203;-70
2023/01/08 07:26:11;;;;;;;50.17;28.90;;;7.20;99.90;;;;;;5011762;28;20233;-70
2023/01/08 07:28:41;;;;;;;51.10;28.87;;;7.20;99.90;;;;;;5005302;28;20207;-72
2023/01/08 07:31:10;;;;;;;48.33;26.07;;;7.20;99.90;;;;;;4999671;28;20720;-73
2023/01/08 07:33:39;;;;;;;48.67;28.63;;;7.10;99.90;;;;;;5009440;28;20249;-71
2023/01/08 07:36:09;;;;;;;44.73;27.63;;;7.10;99.90;;;;;;5011927;28;20199;-72
2023/01/08 07:38:38;;;;;;;49.57;27.23;;;7.20;99.90;;;;;;5011595;28;20245;-72
2023/01/08 07:41:07;;;;;;;45.67;26.20;;;7.20;99.90;;;;;;5015628;28;20206;-70
2023/01/08 07:43:37;;;;;;;44.93;27.10;;;7.20;99.90;;;;;;5009011;28;20202;-71
2023/01/08 07:46:06;;;;;;;48.10;26.27;;;7.20;99.90;;;;;;4997190;28;20231;-69
2023/01/08 07:48:35;;;;;;;43.47;25.83;;;7.20;99.90;;;;;;4995970;28;20188;-71
2023/01/08 07:51:05;;;;;;;38.77;25.30;;;7.20;99.90;;;;;;4995894;28;20223;-70
2023/01/08 07:53:34;;;;;;;44.50;26.57;;;7.20;99.90;;;;;;5007229;28;20545;-71
2023/01/08 07:56:04;;;;;;;41.23;25.63;;;7.20;99.90;;;;;;5008128;28;20199;-70
2023/01/08 07:58:34;;;;;;;42.17;25.40;;;7.30;99.90;;;;;;5006456;28;20206;-72
2023/01/08 08:01:08;;;;;;;42.07;25.47;;;7.20;99.90;;;;;;5030598;28;20294;-72
2023/01/08 08:03:38;;;;;;;43.40;25.23;;;7.20;99.90;;;;;;5015342;28;20203;-73
2023/01/08 08:06:08;;;;;;;46.40;26.20;;;7.10;99.90;;;;;;5015139;28;20736;-71
2023/01/08 08:08:37;;;;;;;43.60;27.37;;;7.10;99.90;;;;;;5015496;28;20203;-71
2023/01/08 08:11:09;;;;;;;117.90;65.97;;;7.20;99.90;;;;;;5014840;28;20195;-71
2023/01/08 08:13:41;;;;;;;43.73;27.30;;;7.30;99.90;;;;;;5015214;28;20198;-72
2023/01/08 08:16:12;;;;;;;44.07;27.77;;;7.40;99.90;;;;;;5014762;28;20207;-71
2023/01/08 08:18:41;;;;;;;42.03;26.37;;;7.30;99.90;;;;;;5015363;28;20209;-71
2023/01/08 08:21:10;;;;;;;42.47;27.20;;;7.40;99.90;;;;;;5014420;28;20687;-74
2023/01/08 08:23:39;;;;;;;45.13;27.67;;;7.20;99.90;;;;;;5014983;28;20282;-72
2023/01/08 08:26:07;;;;;;;45.13;28.07;;;7.20;99.90;;;;;;5014098;28;20284;-73
2023/01/08 08:28:36;;;;;;;40.67;24.13;;;7.30;99.90;;;;;;5013655;28;20628;-72
2023/01/08 08:31:05;;;;;;;46.83;27.60;;;7.30;99.90;;;;;;5006905;28;20572;-74
2023/01/08 08:33:36;;;;;;;41.30;26.23;;;7.30;99.90;;;;;;4997571;28;20199;-73
2023/01/08 08:36:05;;;;;;;44.77;28.17;;;7.30;99.90;;;;;;5012525;28;20217;-73
2023/01/08 08:38:34;;;;;;;46.30;29.10;;;7.40;99.90;;;;;;5002562;28;20291;-70
2023/01/08 08:41:03;;;;;;;54.43;33.53;;;7.50;99.90;;;;;;5001622;28;20203;-75
2023/01/08 08:43:32;;;;;;;53.40;33.20;;;7.50;99.90;;;;;;4994879;28;20930;-73
2023/01/08 08:46:01;;;;;;;45.33;30.50;;;7.60;99.90;;;;;;4994754;28;20254;-74
2023/01/08 08:48:30;;;;;;;47.93;30.53;;;7.60;99.90;;;;;;4994884;28;20199;-75
2023/01/08 08:51:00;;;;;;;49.27;31.30;;;7.60;99.90;;;;;;4994574;28;20200;-71
2023/01/08 08:53:29;;;;;;;51.63;31.53;;;7.60;99.90;;;;;;4994588;28;20680;-72
2023/01/08 08:55:59;;;;;;;53.20;30.20;;;7.60;99.90;;;;;;4993888;28;20282;-75
2023/01/08 08:58:28;;;;;;;52.47;32.27;;;7.60;99.90;;;;;;4994841;28;20961;-72
2023/01/08 09:01:02;;;;;;;56.13;33.90;;;7.60;99.90;;;;;;4994590;28;20544;-73
2023/01/08 09:03:31;;;;;;;54.73;36.57;;;7.60;99.90;;;;;;4994715;28;20680;-73
2023/01/08 09:06:02;;;;;;;55.83;31.97;;;7.60;99.90;;;;;;4994335;28;20242;-71
2023/01/08 09:08:30;;;;;;;50.50;32.37;;;7.70;99.90;;;;;;4998077;28;20257;-73
2023/01/08 09:11:02;;;;;;;58.27;35.73;;;7.60;99.90;;;;;;5013598;28;20266;-72
2023/01/08 09:13:31;;;;;;;54.37;31.77;;;7.50;99.90;;;;;;5014171;28;20199;-72
2023/01/08 09:16:00;;;;;;;56.23;33.70;;;7.50;99.90;;;;;;5013763;28;20230;-71
2023/01/08 09:18:29;;;;;;;55.50;34.63;;;7.50;99.90;;;;;;5012509;28;20238;-72
2023/01/08 09:20:58;;;;;;;58.10;34.67;;;7.40;99.90;;;;;;5012963;28;20253;-71
2023/01/08 09:23:28;;;;;;;56.43;33.80;;;7.50;99.90;;;;;;5012878;28;20199;-71
2023/01/08 09:26:00;;;;;;;50.13;31.60;;;7.50;99.90;;;;;;5013571;28;20192;-73
2023/01/08 09:28:29;;;;;;;53.50;32.83;;;7.40;99.90;;;;;;5013805;28;20201;-72
2023/01/08 09:31:01;;;;;;;54.60;33.53;;;7.40;99.90;;;;;;5013822;28;20221;-73
2023/01/08 09:33:30;;;;;;;58.10;35.50;;;7.40;99.90;;;;;;5013598;28;20261;-72
2023/01/08 09:35:59;;;;;;;56.37;34.47;;;7.40;99.90;;;;;;5013453;28;20195;-71
2023/01/08 09:38:30;;;;;;;55.80;33.20;;;7.40;99.90;;;;;;5012953;28;20195;-72
2023/01/08 09:41:01;;;;;;;55.70;33.87;;;7.40;99.90;;;;;;5013290;28;20241;-72
2023/01/08 09:43:35;;;;;;;61.40;36.30;;;7.40;99.90;;;;;;5013503;28;20689;-73
2023/01/08 09:46:06;;;;;;;53.97;32.87;;;7.40;99.90;;;;;;5013172;28;20229;-75
2023/01/08 09:48:37;;;;;;;57.63;34.63;;;7.40;99.90;;;;;;5013281;28;20195;-71
2023/01/08 09:51:09;;;;;;;59.83;35.60;;;7.30;99.90;;;;;;5013054;28;20203;-73
2023/01/08 09:53:40;;;;;;;64.07;35.97;;;7.30;99.90;;;;;;5012714;28;20211;-73
2023/01/08 09:56:14;;;;;;;59.30;36.53;;;7.40;99.90;;;;;;5012162;28;20206;-72
2023/01/08 09:58:47;;;;;;;61.67;35.23;;;7.40;99.90;;;;;;5013358;28;20668;-71
2023/01/08 10:01:19;;;;;;;60.37;36.20;;;7.50;99.90;;;;;;5009019;28;20226;-71
2023/01/08 10:03:52;;;;;;;62.17;35.53;;;7.50;99.90;;;;;;4993154;28;20280;-72
2023/01/08 10:06:24;;;;;;;63.90;35.43;;;7.50;99.90;;;;;;4993267;28;20204;-72
2023/01/08 10:08:54;;;;;;;59.57;33.80;;;7.40;99.90;;;;;;4992907;28;20204;-72
2023/01/08 10:11:24;;;;;;;55.63;33.70;;;7.30;99.90;;;;;;4993411;28;20215;-71
2023/01/08 10:13:56;;;;;;;59.80;35.10;;;7.20;99.90;;;;;;4995891;28;20203;-72
2023/01/08 10:16:30;;;;;;;58.73;33.00;;;7.20;99.90;;;;;;5010966;28;20669;-72
2023/01/08 10:19:00;;;;;;;61.77;35.33;;;7.20;99.90;;;;;;5012919;28;20222;-72
2023/01/08 10:21:32;;;;;;;60.10;35.10;;;7.20;99.90;;;;;;5012449;28;20209;-71
2023/01/08 10:24:02;;;;;;;56.07;34.17;;;7.20;99.90;;;;;;5012635;28;20206;-71
2023/01/08 10:26:35;;;;;;;63.63;36.10;;;7.20;99.90;;;;;;5012296;28;20203;-71
2023/01/08 10:29:09;;;;;;;103.90;45.13;;;7.20;99.90;;;;;;5012824;28;20237;-72
2023/01/08 10:31:50;;;;;;;61.87;34.40;;;7.30;99.90;;;;;;5012494;28;20286;-70
2023/01/08 10:34:31;;;;;;;61.97;35.40;;;7.30;99.90;;;;;;5010768;28;20200;-71
2023/01/08 10:37:00;;;;;;;66.97;36.57;;;7.30;99.90;;;;;;5009280;28;20684;-71
2023/01/08 10:39:31;;;;;;;60.53;35.30;;;7.20;99.90;;;;;;5006330;28;20297;-72
2023/01/08 10:42:06;;;;;;;61.47;34.80;;;7.20;99.90;;;;;;4995774;28;20211;-71
2023/01/08 10:44:35;;;;;;;78.47;41.37;;;7.20;99.90;;;;;;4993293;28;20198;-70
2023/01/08 10:47:05;;;;;;;64.80;37.03;;;7.30;99.90;;;;;;4992689;28;20704;-71
2023/01/08 10:49:40;;;;;;;79.77;41.77;;;7.30;99.90;;;;;;4994061;28;20203;-71
2023/01/08 10:52:24;;;;;;;59.47;35.67;;;7.40;99.90;;;;;;5012016;28;20567;-72
2023/01/08 10:54:55;;;;;;;66.13;36.03;;;7.40;99.90;;;;;;5008371;28;20201;-72
2023/01/08 10:57:27;;;;;;;60.00;33.93;;;7.30;99.90;;;;;;5010955;28;20237;-71
2023/01/08 10:59:57;;;;;;;70.03;37.37;;;7.30;99.90;;;;;;5011655;28;20191;-71
2023/01/08 11:02:35;;;;;;;64.93;37.20;;;7.30;99.90;;;;;;5012028;28;20282;-71
2023/01/08 11:05:09;;;;;;;57.83;34.50;;;7.40;99.90;;;;;;5012306;28;20676;-71
2023/01/08 11:07:39;;;;;;;58.60;34.27;;;7.40;99.90;;;;;;5011998;28;20222;-71
2023/01/08 11:10:22;;;;;;;52.97;29.70;;;7.50;99.90;;;;;;5012116;28;20660;-73
2023/01/08 11:12:56;;;;;;;51.03;32.47;;;7.40;99.90;;;;;;5012405;28;20199;-71
2023/01/08 11:15:30;;;;;;;54.90;31.70;;;7.30;99.90;;;;;;5016142;28;20723;-72
2023/01/08 11:18:07;;;;;;;52.70;30.80;;;7.40;99.90;;;;;;5016043;28;20190;-71
2023/01/08 11:20:38;;;;;;;72.27;37.53;;;7.40;99.90;;;;;;5016152;28;20741;-72
2023/01/08 11:23:14;;;;;;;53.07;30.20;;;7.40;99.90;;;;;;5016030;28;20290;-70
2023/01/08 11:25:51;;;;;;;48.63;29.37;;;7.40;99.90;;;;;;5016013;28;20684;-71
2023/01/08 11:28:28;;;;;;;48.77;29.27;;;7.30;99.90;;;;;;5014881;28;20223;-70
2023/01/08 11:31:06;;;;;;;65.50;35.80;;;7.30;99.90;;;;;;5012343;28;20560;-69
2023/01/08 11:33:37;;;;;;;48.60;29.10;;;7.40;99.90;;;;;;5005121;28;20230;-70
2023/01/08 11:36:16;;;;;;;44.87;27.53;;;7.50;99.90;;;;;;4996149;28;20540;-71
2023/01/08 11:38:45;;;;;;;46.87;27.83;;;7.40;99.90;;;;;;4996203;28;20203;-70
2023/01/08 11:41:29;;;;;;;49.73;28.13;;;7.40;99.90;;;;;;4995945;28;20226;-70
2023/01/08 11:44:20;;;;;;;48.03;28.17;;;7.50;99.90;;;;;;4996270;28;20655;-70
2023/01/08 11:46:57;;;;;;;53.60;29.67;;;7.40;99.90;;;;;;4996097;28;20239;-69
2023/01/08 11:49:51;;;;;;;43.23;25.00;;;7.30;99.90;;;;;;4995871;28;20218;-68
2023/01/08 11:52:34;;;;;;;49.57;27.43;;;7.30;99.90;;;;;;4993975;28;20210;-69
2023/01/08 11:55:20;;;;;;;52.70;27.67;;;7.20;99.90;;;;;;4995774;28;20207;-69
2023/01/08 11:58:10;;;;;;;48.87;28.70;;;7.30;99.90;;;;;;4995269;28;20242;-68
2023/01/08 12:00:53;;;;;;;46.80;27.37;;;7.40;99.90;;;;;;4995826;28;20310;-69
2023/01/08 12:03:30;;;;;;;86.40;36.37;;;7.40;99.90;;;;;;5008651;28;20203;-70
2023/01/08 12:06:13;;;;;;;107.17;45.00;;;7.40;99.90;;;;;;5004030;28;20628;-70
2023/01/08 12:08:52;;;;;;;47.60;27.57;;;7.40;99.90;;;;;;4995584;28;20227;-70
2023/01/08 12:11:26;;;;;;;85.53;35.17;;;7.40;99.90;;;;;;4995642;28;20594;-69
2023/01/08 12:14:18;;;;;;;48.87;30.27;;;7.40;99.90;;;;;;4995664;28;20210;-69
2023/01/08 12:16:58;;;;;;;58.40;29.87;;;7.50;99.90;;;;;;4995192;28;20203;-69
2023/01/08 12:19:43;;;;;;;45.27;27.33;;;7.60;99.90;;;;;;4995447;28;20202;-68
2023/01/08 12:22:27;;;;;;;46.10;26.27;;;7.50;99.90;;;;;;4998868;28;20200;-69
2023/01/08 12:25:22;;;;;;;44.23;27.63;;;7.50;99.90;;;;;;4994908;28;20258;-68
2023/01/08 12:28:02;;;;;;;44.67;24.47;;;7.40;99.90;;;;;;5012779;28;20215;-67
2023/01/08 12:30:45;;;;;;;50.83;27.87;;;7.30;99.90;;;;;;5009332;28;20617;-69
2023/01/08 12:33:23;;;;;;;48.17;26.57;;;7.40;99.90;;;;;;5014705;28;20202;-70
2023/01/08 12:35:57;;;;;;;67.47;38.30;;;7.30;99.90;;;;;;5014588;28;20202;-69
2023/01/08 12:38:31;;;;;;;51.43;28.00;;;7.30;99.90;;;;;;5014602;28;20207;-70
2023/01/08 12:41:04;;;;;;;51.40;29.13;;;7.30;99.90;;;;;;5014472;28;20684;-70
2023/01/08 12:43:43;;;;;;;50.33;27.87;;;7.30;99.90;;;;;;5014653;28;20206;-70
2023/01/08 12:46:15;;;;;;;48.73;26.63;;;7.30;99.90;;;;;;5014522;28;20598;-70
2023/01/08 12:48:47;;;;;;;46.97;27.03;;;7.20;99.90;;;;;;5014507;28;20607;-70
2023/01/08 12:51:26;;;;;;;46.67;26.13;;;7.20;99.90;;;;;;5012362;28;20229;-70
2023/01/08 12:54:02;;;;;;;104.27;43.13;;;7.30;99.90;;;;;;5006028;28;20238;-70
2023/01/08 12:56:40;;;;;;;48.90;28.37;;;7.40;99.90;;;;;;5013673;28;20234;-69
2023/01/08 12:59:23;;;;;;;44.90;27.90;;;7.50;99.90;;;;;;5014182;28;20669;-69